createdAt,value
2018-06-27T00:01:42.058Z,99.90
2018-06-27T00:04:10.862Z,99.90
2018-06-27T00:09:08.462Z,99.90
2018-06-27T00:11:37.122Z,99.90
2018-06-27T00:14:05.843Z,99.90
2018-06-27T00:16:34.402Z,99.90
2018-06-27T00:19:02.943Z,99.90
2018-06-27T00:21:31.532Z,99.90
2018-06-27T00:24:00.114Z,99.90
2018-06-27T00:26:28.659Z,99.90
2018-06-27T00:28:57.587Z,99.90
2018-06-27T00:31:26.199Z,99.90
2018-06-27T00:33:54.752Z,99.90
2018-06-27T00:36:23.324Z,99.90
2018-06-27T00:38:51.858Z,99.90
2018-06-27T00:41:20.423Z,99.90
2018-06-27T00:43:48.955Z,99.90
2018-06-27T00:46:17.613Z,99.90
2018-06-27T00:48:46.180Z,99.90
2018-06-27T00:51:14.739Z,99.90
2018-06-27T00:53:48.698Z,99.90
2018-06-27T00:56:17.226Z,99.90
2018-06-27T00:58:45.802Z,99.90
2018-06-27T01:01:14.375Z,99.90
2018-06-27T01:03:43.447Z,99.90
2018-06-27T01:06:12.005Z,99.90
2018-06-27T01:08:40.642Z,99.90
2018-06-27T01:11:09.224Z,99.90
2018-06-27T01:13:37.806Z,99.90
2018-06-27T01:16:06.356Z,99.90
2018-06-27T01:18:34.903Z,99.90
2018-06-27T01:21:03.454Z,99.90
2018-06-27T01:23:32.003Z,99.90
2018-06-27T01:26:00.601Z,99.90
2018-06-27T01:28:29.167Z,99.90
2018-06-27T01:30:57.771Z,99.90
2018-06-27T01:33:26.343Z,99.90
2018-06-27T01:35:54.858Z,99.90
2018-06-27T01:38:23.418Z,99.90
2018-06-27T01:40:52.226Z,99.90
2018-06-27T01:43:20.858Z,99.90
2018-06-27T01:45:49.439Z,99.90
2018-06-27T01:48:17.971Z,99.90
2018-06-27T01:50:46.545Z,99.90
2018-06-27T01:53:15.118Z,99.90
2018-06-27T01:55:43.687Z,99.90
2018-06-27T01:58:12.330Z,99.90
2018-06-27T02:00:40.904Z,99.90
2018-06-27T02:03:09.635Z,99.90
2018-06-27T02:05:38.190Z,99.90
2018-06-27T02:08:07.034Z,99.90
2018-06-27T02:10:35.578Z,99.90
2018-06-27T02:13:04.190Z,99.90
2018-06-27T02:15:32.737Z,99.90
2018-06-27T02:18:01.286Z,99.90
2018-06-27T02:20:29.850Z,99.90
2018-06-27T02:23:05.601Z,99.90
2018-06-27T02:25:34.282Z,99.90
2018-06-27T02:28:02.907Z,99.90
2018-06-27T02:30:31.458Z,99.90
2018-06-27T02:33:00.471Z,99.90
2018-06-27T02:35:29.223Z,99.90
2018-06-27T02:37:58.154Z,99.90
2018-06-27T02:40:26.839Z,99.90
2018-06-27T02:42:56.059Z,99.90
2018-06-27T02:45:24.995Z,99.90
2018-06-27T02:47:53.659Z,99.90
2018-06-27T02:50:22.269Z,99.90
2018-06-27T02:52:50.799Z,99.90
2018-06-27T02:55:19.346Z,99.90
2018-06-27T02:57:47.882Z,99.90
2018-06-27T03:00:17.225Z,99.90
2018-06-27T03:02:46.994Z,99.90
2018-06-27T03:05:15.832Z,99.90
2018-06-27T03:07:45.138Z,99.90
2018-06-27T03:10:13.785Z,99.90
2018-06-27T03:12:42.355Z,99.90
2018-06-27T03:15:11.171Z,99.90
2018-06-27T03:17:39.822Z,99.90
2018-06-27T03:20:08.465Z,99.90
2018-06-27T03:22:37.024Z,99.90
2018-06-27T03:25:05.698Z,99.90
2018-06-27T03:27:34.239Z,99.90
2018-06-27T03:30:02.949Z,99.90
2018-06-27T03:32:31.971Z,99.90
2018-06-27T03:35:00.495Z,99.90
2018-06-27T03:37:29.043Z,99.90
2018-06-27T03:39:57.612Z,99.90
2018-06-27T03:42:26.210Z,99.90
2018-06-27T03:44:54.747Z,99.90
2018-06-27T03:47:23.333Z,99.90
2018-06-27T03:49:51.846Z,99.90
2018-06-27T03:52:20.683Z,99.90
2018-06-27T03:54:49.231Z,99.90
2018-06-27T03:57:17.846Z,99.90
2018-06-27T03:59:46.458Z,99.90
2018-06-27T04:02:15.071Z,99.90
2018-06-27T04:04:43.623Z,99.90
2018-06-27T04:07:12.287Z,99.90
2018-06-27T04:09:40.836Z,99.90
2018-06-27T04:12:09.465Z,99.90
2018-06-27T04:14:38.264Z,99.90
2018-06-27T04:17:06.894Z,99.90
2018-06-27T04:19:35.595Z,99.90
2018-06-27T04:22:04.106Z,99.90
2018-06-27T04:24:32.722Z,99.90
2018-06-27T04:27:01.260Z,99.90
2018-06-27T04:29:30.175Z,99.90
2018-06-27T04:31:58.694Z,99.90
2018-06-27T04:34:27.323Z,99.90
2018-06-27T04:36:55.854Z,99.90
2018-06-27T04:39:24.551Z,99.90
2018-06-27T04:41:53.221Z,99.90
2018-06-27T04:44:21.778Z,99.90
2018-06-27T04:46:50.327Z,99.90
2018-06-27T04:49:19.030Z,99.90
2018-06-27T04:51:47.690Z,99.90
2018-06-27T04:54:16.304Z,99.90
2018-06-27T04:56:45.295Z,99.90
2018-06-27T04:59:13.964Z,99.90
2018-06-27T05:01:42.546Z,99.90
2018-06-27T05:04:11.403Z,99.90
2018-06-27T05:06:39.952Z,99.90
2018-06-27T05:09:09.860Z,99.90
2018-06-27T05:11:38.974Z,99.90
2018-06-27T05:14:07.556Z,99.90
2018-06-27T05:16:36.239Z,99.90
2018-06-27T05:19:05.068Z,99.90
2018-06-27T05:21:33.713Z,99.90
2018-06-27T05:24:02.409Z,99.90
2018-06-27T05:26:31.455Z,99.90
2018-06-27T05:29:00.012Z,99.90
2018-06-27T05:31:28.608Z,99.90
2018-06-27T05:33:57.341Z,99.90
2018-06-27T05:36:25.942Z,99.90
2018-06-27T05:38:54.478Z,99.90
2018-06-27T05:41:23.062Z,99.90
2018-06-27T05:43:51.612Z,99.90
2018-06-27T05:46:20.167Z,99.90
2018-06-27T05:48:48.870Z,99.90
2018-06-27T05:51:17.550Z,99.90
2018-06-27T05:53:46.055Z,99.90
2018-06-27T05:56:14.760Z,99.90
2018-06-27T05:58:43.346Z,99.90
2018-06-27T06:01:12.032Z,99.90
2018-06-27T06:03:40.710Z,99.90
2018-06-27T06:06:09.411Z,99.90
2018-06-27T06:08:37.958Z,99.90
2018-06-27T06:11:06.870Z,99.90
2018-06-27T06:13:35.391Z,99.90
2018-06-27T06:16:04.068Z,99.90
2018-06-27T06:18:32.759Z,99.90
2018-06-27T06:21:01.532Z,99.90
2018-06-27T06:23:30.212Z,99.90
2018-06-27T06:25:58.820Z,99.90
2018-06-27T06:28:27.425Z,99.90
2018-06-27T06:30:56.035Z,99.90
2018-06-27T06:33:24.911Z,99.90
2018-06-27T06:35:53.522Z,99.90
2018-06-27T06:38:22.075Z,99.90
2018-06-27T06:40:50.727Z,99.90
2018-06-27T06:43:19.193Z,99.90
2018-06-27T06:45:47.706Z,99.90
2018-06-27T06:48:16.811Z,99.90
2018-06-27T06:50:45.351Z,99.90
2018-06-27T06:53:14.175Z,99.90
2018-06-27T06:55:42.719Z,99.90
2018-06-27T06:58:11.265Z,99.90
2018-06-27T07:00:39.806Z,99.90
2018-06-27T07:03:09.431Z,99.90
2018-06-27T07:05:37.966Z,99.90
2018-06-27T07:08:06.631Z,99.90
2018-06-27T07:10:35.333Z,99.90
2018-06-27T07:13:03.899Z,99.90
2018-06-27T07:15:32.683Z,99.90
2018-06-27T07:18:01.399Z,99.90
2018-06-27T07:20:30.010Z,99.90
2018-06-27T07:22:58.587Z,99.90
2018-06-27T07:25:27.387Z,99.90
2018-06-27T07:27:55.955Z,99.90
2018-06-27T07:30:24.572Z,99.90
2018-06-27T07:32:53.434Z,99.90
2018-06-27T07:35:22.302Z,99.90
2018-06-27T07:37:51.255Z,99.90
2018-06-27T07:40:19.875Z,99.90
2018-06-27T07:42:48.694Z,99.90
2018-06-27T07:45:17.336Z,99.90
2018-06-27T07:47:45.896Z,99.90
2018-06-27T07:50:14.597Z,99.90
2018-06-27T07:52:43.327Z,99.90
2018-06-27T07:55:11.963Z,99.90
2018-06-27T07:57:40.530Z,99.90
2018-06-27T08:00:09.791Z,99.90
2018-06-27T08:02:38.358Z,99.90
2018-06-27T08:05:06.883Z,99.90
2018-06-27T08:07:35.510Z,99.90
2018-06-27T08:10:04.030Z,99.90
2018-06-27T08:12:32.628Z,99.90
2018-06-27T08:15:01.180Z,99.90
2018-06-27T08:17:29.863Z,99.90
2018-06-27T08:19:58.419Z,99.90
2018-06-27T08:22:27.163Z,99.90
2018-06-27T08:24:55.880Z,99.90
2018-06-27T08:27:24.431Z,99.90
2018-06-27T08:29:53.026Z,99.90
2018-06-27T08:32:21.558Z,99.00
2018-06-27T08:34:50.240Z,99.70
2018-06-27T08:37:19.175Z,99.90
2018-06-27T08:39:47.776Z,99.70
2018-06-27T08:42:16.298Z,99.10
2018-06-27T08:44:44.968Z,97.80
2018-06-27T08:47:13.517Z,98.50
2018-06-27T08:49:42.110Z,98.70
2018-06-27T08:52:10.713Z,98.70
2018-06-27T08:54:44.626Z,99.90
2018-06-27T08:57:13.846Z,99.10
2018-06-27T08:59:42.695Z,99.90
2018-06-27T09:02:11.323Z,99.10
2018-06-27T09:04:40.196Z,99.30
2018-06-27T09:07:09.479Z,99.50
2018-06-27T09:09:38.282Z,99.30
2018-06-27T09:12:07.373Z,98.30
2018-06-27T09:14:35.902Z,98.50
2018-06-27T09:17:04.637Z,98.10
2018-06-27T09:19:33.242Z,97.80
2018-06-27T09:22:02.183Z,96.50
2018-06-27T09:24:30.831Z,97.10
2018-06-27T09:26:59.588Z,96.70
2018-06-27T09:29:28.315Z,95.80
2018-06-27T09:31:56.923Z,96.50
2018-06-27T09:34:25.476Z,97.10
2018-06-27T09:36:54.039Z,96.20
2018-06-27T09:39:22.572Z,97.40
2018-06-27T09:41:51.202Z,96.70
2018-06-27T09:44:19.718Z,95.70
2018-06-27T09:46:48.267Z,95.50
2018-06-27T09:49:16.932Z,96.20
2018-06-27T09:51:45.530Z,94.90
2018-06-27T09:54:14.220Z,95.90
2018-06-27T09:56:43.208Z,94.60
2018-06-27T09:59:11.738Z,94.80
2018-06-27T10:01:40.279Z,94.50
2018-06-27T10:04:08.819Z,96.30
2018-06-27T10:06:37.371Z,97.00
2018-06-27T10:09:08.543Z,97.70
2018-06-27T10:11:37.178Z,98.60
2018-06-27T10:14:06.102Z,98.90
2018-06-27T10:16:35.019Z,98.00
2018-06-27T10:19:03.662Z,98.80
2018-06-27T10:21:32.190Z,98.60
2018-06-27T10:24:00.948Z,97.10
2018-06-27T10:26:29.507Z,96.30
2018-06-27T10:28:58.059Z,96.80
2018-06-27T10:31:26.768Z,97.80
2018-06-27T10:33:55.528Z,98.40
2018-06-27T10:36:24.074Z,98.10
2018-06-27T10:38:52.574Z,97.50
2018-06-27T10:41:21.204Z,98.00
2018-06-27T10:43:49.779Z,96.70
2018-06-27T10:46:18.319Z,95.10
2018-06-27T10:48:47.300Z,93.60
2018-06-27T10:51:15.839Z,92.80
2018-06-27T10:53:44.406Z,93.80
2018-06-27T10:56:12.968Z,94.70
2018-06-27T10:58:41.622Z,93.10
2018-06-27T11:01:10.220Z,93.50
2018-06-27T11:03:39.031Z,92.40
2018-06-27T11:06:07.798Z,91.10
2018-06-27T11:08:36.426Z,92.20
2018-06-27T11:11:05.051Z,92.90
2018-06-27T11:13:34.047Z,91.40
2018-06-27T11:16:02.735Z,90.90
2018-06-27T11:18:31.426Z,90.30
2018-06-27T11:20:59.951Z,88.70
2018-06-27T11:23:28.664Z,90.80
2018-06-27T11:25:57.301Z,91.10
2018-06-27T11:28:25.954Z,90.20
2018-06-27T11:30:54.470Z,90.20
2018-06-27T11:33:23.107Z,90.80
2018-06-27T11:35:51.833Z,91.10
2018-06-27T11:38:20.559Z,90.10
2018-06-27T11:43:17.782Z,90.80
2018-06-27T11:45:46.319Z,91.10
2018-06-27T11:48:14.891Z,90.50
2018-06-27T11:50:43.440Z,89.80
2018-06-27T11:53:11.950Z,88.10
2018-06-27T11:55:40.539Z,89.00
2018-06-27T11:58:09.078Z,88.80
2018-06-27T12:00:37.679Z,88.60
2018-06-27T12:03:06.534Z,89.70
2018-06-27T12:05:35.171Z,88.90
2018-06-27T12:08:03.972Z,89.70
2018-06-27T12:10:32.682Z,90.70
2018-06-27T12:13:01.253Z,88.60
2018-06-27T12:15:29.871Z,87.20
2018-06-27T12:17:58.510Z,89.40
2018-06-27T12:20:27.235Z,83.50
2018-06-27T12:22:55.871Z,82.60
2018-06-27T12:25:24.479Z,80.20
2018-06-27T12:27:53.071Z,81.90
2018-06-27T12:30:25.825Z,81.20
2018-06-27T12:32:54.388Z,83.70
2018-06-27T12:35:23.270Z,83.50
2018-06-27T12:37:52.378Z,80.60
2018-06-27T12:40:20.952Z,79.80
2018-06-27T12:42:49.555Z,81.00
2018-06-27T12:45:18.285Z,76.20
2018-06-27T12:47:46.847Z,74.40
2018-06-27T12:50:15.481Z,74.00
2018-06-27T12:52:43.994Z,75.80
2018-06-27T12:55:13.877Z,74.00
2018-06-27T12:57:42.396Z,74.20
2018-06-27T13:00:11.567Z,74.30
2018-06-27T13:02:40.180Z,75.60
2018-06-27T13:05:09.642Z,76.00
2018-06-27T13:07:38.215Z,74.20
2018-06-27T13:10:08.160Z,70.20
2018-06-27T13:12:36.941Z,69.20
2018-06-27T13:15:06.428Z,68.30
2018-06-27T13:17:35.147Z,65.70
2018-06-27T13:20:03.875Z,65.00
2018-06-27T13:22:32.667Z,63.50
2018-06-27T13:25:01.370Z,64.00
2018-06-27T13:27:30.140Z,65.40
2018-06-27T13:29:58.887Z,64.90
2018-06-27T13:32:27.494Z,64.30
2018-06-27T13:34:56.153Z,60.70
2018-06-27T13:37:24.794Z,60.80
2018-06-27T13:39:53.427Z,60.90
2018-06-27T13:42:22.227Z,61.30
2018-06-27T13:44:50.843Z,58.00
2018-06-27T13:47:19.551Z,58.50
2018-06-27T13:49:48.707Z,60.60
2018-06-27T13:52:17.435Z,57.40
2018-06-27T13:54:50.194Z,58.80
2018-06-27T13:57:18.842Z,57.30
2018-06-27T13:59:47.379Z,57.00
2018-06-27T14:02:16.281Z,58.20
2018-06-27T14:04:45.387Z,58.70
2018-06-27T14:07:13.974Z,57.50
2018-06-27T14:09:42.568Z,57.70
2018-06-27T14:12:11.107Z,57.70
2018-06-27T14:14:39.814Z,60.90
2018-06-27T14:17:08.463Z,57.90
2018-06-27T14:19:37.110Z,57.20
2018-06-27T14:22:05.911Z,56.90
2018-06-27T14:24:34.643Z,56.20
2018-06-27T14:27:03.204Z,56.30
2018-06-27T14:29:31.826Z,57.10
2018-06-27T14:32:00.397Z,56.00
2018-06-27T14:34:28.991Z,56.00
2018-06-27T14:36:57.700Z,57.20
2018-06-27T14:39:26.472Z,57.10
2018-06-27T14:41:55.035Z,56.00
2018-06-27T14:44:23.656Z,60.30
2018-06-27T14:46:52.327Z,57.40
2018-06-27T14:49:20.887Z,57.00
2018-06-27T14:51:49.448Z,56.60
2018-06-27T16:33:25.813Z,51.60
2018-06-27T16:35:54.443Z,53.50
2018-06-27T16:38:23.058Z,52.00
2018-06-27T16:40:51.723Z,53.50
2018-06-27T16:43:20.368Z,52.90
2018-06-27T16:45:49.117Z,53.30
2018-06-27T16:48:17.824Z,54.70
2018-06-27T16:50:46.616Z,54.50
2018-06-27T16:53:15.244Z,54.40
2018-06-27T16:55:43.839Z,54.90
2018-06-27T16:58:12.608Z,54.90
2018-06-27T17:00:41.165Z,52.70
2018-06-27T17:03:09.736Z,52.70
2018-06-27T17:05:38.312Z,52.40
2018-06-27T17:08:07.174Z,52.60
2018-06-27T17:10:35.807Z,54.00
2018-06-27T17:13:04.448Z,52.70
2018-06-27T17:15:33.300Z,55.40
2018-06-27T17:18:01.826Z,55.10
2018-06-27T17:20:30.441Z,54.50
2018-06-27T17:22:59.256Z,54.50
2018-06-27T17:25:27.864Z,56.00
2018-06-27T17:27:56.671Z,54.00
2018-06-27T17:30:25.208Z,53.80
2018-06-27T17:32:53.719Z,54.40
2018-06-27T17:35:22.427Z,54.70
2018-06-27T17:37:51.087Z,54.10
2018-06-27T17:40:19.883Z,54.90
2018-06-27T17:42:48.625Z,55.50
2018-06-27T17:45:17.271Z,55.00
2018-06-27T17:47:46.055Z,54.80
2018-06-27T17:50:14.667Z,54.80
2018-06-27T17:52:43.325Z,55.50
2018-06-27T17:55:11.987Z,56.40
2018-06-27T17:57:40.612Z,57.00
2018-06-27T18:00:09.415Z,57.90
2018-06-27T18:02:37.943Z,59.60
2018-06-27T18:05:06.927Z,60.20
2018-06-27T18:07:35.652Z,61.50
2018-06-27T18:10:04.216Z,62.00
2018-06-27T18:12:32.850Z,63.00
2018-06-27T18:15:01.532Z,63.80
2018-06-27T18:17:30.231Z,64.50
2018-06-27T18:19:58.830Z,63.50
2018-06-27T18:22:27.783Z,65.00
2018-06-27T18:24:56.724Z,65.00
2018-06-27T18:27:25.479Z,65.10
2018-06-27T18:29:54.042Z,65.40
2018-06-27T18:32:22.766Z,63.50
2018-06-27T18:34:51.531Z,64.70
2018-06-27T18:37:20.179Z,65.30
2018-06-27T18:39:49.035Z,64.40
2018-06-27T18:42:17.636Z,65.80
2018-06-27T18:44:46.257Z,65.80
2018-06-27T18:47:14.927Z,65.00
2018-06-27T18:49:43.676Z,66.00
2018-06-27T18:52:12.385Z,66.40
2018-06-27T18:54:41.452Z,66.20
2018-06-27T18:57:10.381Z,66.40
2018-06-27T18:59:39.096Z,67.30
2018-06-27T19:02:07.802Z,67.30
2018-06-27T19:04:36.739Z,67.60
2018-06-27T19:07:05.980Z,67.80
2018-06-27T19:09:34.744Z,68.10
2018-06-27T19:14:31.895Z,68.40
2018-06-27T19:17:00.487Z,69.10
2018-06-27T19:19:29.090Z,69.60
2018-06-27T19:21:57.768Z,69.50
2018-06-27T19:24:26.540Z,70.60
2018-06-27T19:26:55.345Z,72.00
2018-06-27T19:29:23.964Z,73.80
2018-06-27T19:31:52.919Z,71.00
2018-06-27T19:34:21.733Z,71.40
2018-06-27T19:36:50.316Z,71.10
2018-06-27T19:39:19.065Z,71.50
2018-06-27T19:44:15.974Z,72.00
2018-06-27T19:46:44.517Z,71.50
2018-06-27T19:49:13.224Z,71.40
2018-06-27T19:51:41.912Z,71.90
2018-06-27T19:54:10.690Z,72.30
2018-06-27T19:56:39.832Z,73.00
2018-06-27T19:59:08.591Z,71.70
2018-06-27T20:01:37.235Z,72.10
2018-06-27T20:06:34.148Z,72.70
2018-06-27T20:09:02.772Z,72.60
2018-06-27T20:11:31.448Z,73.90
2018-06-27T20:14:00.055Z,74.30
2018-06-27T20:16:29.002Z,74.20
2018-06-27T20:18:57.601Z,74.00
2018-06-27T20:21:26.325Z,74.00
2018-06-27T20:23:55.085Z,74.10
2018-06-27T20:26:23.921Z,72.90
2018-06-27T20:28:52.662Z,72.50
2018-06-27T20:31:21.407Z,72.50
2018-06-27T20:33:49.983Z,72.90
2018-06-27T20:36:18.539Z,73.00
2018-06-27T20:38:47.106Z,73.00
2018-06-27T20:41:15.732Z,72.90
2018-06-27T20:43:44.671Z,72.20
2018-06-27T20:46:13.251Z,73.30
2018-06-27T20:51:10.032Z,73.20
2018-06-27T20:53:38.728Z,73.50
2018-06-27T20:56:07.251Z,74.40
2018-06-27T20:58:36.056Z,74.10
2018-06-27T21:01:04.739Z,73.90
2018-06-27T21:03:33.424Z,74.40
2018-06-27T21:06:02.172Z,74.20
2018-06-27T21:08:30.824Z,74.50
2018-06-27T21:10:59.538Z,75.40
2018-06-27T21:13:28.294Z,75.20
2018-06-27T21:15:56.978Z,75.80
2018-06-27T21:18:25.594Z,76.40
2018-06-27T21:20:54.306Z,76.30
2018-06-27T21:23:22.991Z,76.50
2018-06-27T21:25:51.827Z,76.30
2018-06-27T21:28:20.472Z,78.40
2018-06-27T21:30:49.583Z,77.00
2018-06-27T21:33:18.094Z,77.10
2018-06-27T21:35:46.832Z,77.50
2018-06-27T21:38:15.375Z,78.00
2018-06-27T21:40:44.360Z,78.30
2018-06-27T21:43:13.387Z,78.10
2018-06-27T21:45:42.202Z,77.90
2018-06-27T21:48:10.904Z,78.60
2018-06-27T21:50:39.454Z,79.30
2018-06-27T21:53:08.240Z,78.70
2018-06-27T21:58:05.631Z,79.30
2018-06-27T22:00:34.259Z,79.50
2018-06-27T22:03:03.928Z,79.70
2018-06-27T22:05:32.475Z,79.80
2018-06-27T22:08:01.044Z,80.50
2018-06-27T22:10:29.602Z,80.50
2018-06-27T22:12:58.151Z,83.60
2018-06-27T22:15:27.123Z,83.80
2018-06-27T22:17:55.687Z,84.80
2018-06-27T22:20:24.248Z,84.40
2018-06-27T22:22:52.783Z,86.40
2018-06-27T22:25:21.420Z,87.50
2018-06-27T22:27:50.168Z,86.30
2018-06-27T22:30:18.718Z,88.70
2018-06-27T22:32:47.398Z,88.60
2018-06-27T22:35:16.159Z,86.30
2018-06-27T22:37:44.731Z,84.90
2018-06-27T22:40:13.483Z,84.90
2018-06-27T22:42:42.369Z,88.10
2018-06-27T22:45:10.924Z,89.00
2018-06-27T22:47:39.503Z,90.00
2018-06-27T22:50:08.059Z,90.20
2018-06-27T22:52:36.601Z,90.60
2018-06-27T22:55:05.234Z,91.80
2018-06-27T22:57:33.758Z,91.60
2018-06-27T23:00:02.287Z,91.50
2018-06-27T23:02:31.014Z,92.70
2018-06-27T23:04:59.544Z,92.10
2018-06-27T23:07:28.551Z,91.60
2018-06-27T23:09:57.195Z,91.80
2018-06-27T23:12:25.754Z,91.20
2018-06-27T23:14:54.306Z,92.30
2018-06-27T23:17:22.950Z,91.90
2018-06-27T23:19:51.766Z,91.90
2018-06-27T23:22:31.776Z,92.60
2018-06-27T23:25:00.329Z,92.50
2018-06-27T23:29:57.608Z,93.10
2018-06-27T23:32:26.503Z,93.00
2018-06-27T23:34:55.495Z,92.90
2018-06-27T23:37:24.295Z,93.10
2018-06-27T23:39:53.189Z,93.10
2018-06-27T23:42:21.820Z,93.50
2018-06-27T23:44:50.646Z,94.90
2018-06-27T23:47:19.364Z,94.90
2018-06-27T23:49:48.098Z,95.50
2018-06-27T23:52:16.822Z,95.30
2018-06-27T23:54:45.354Z,95.40
2018-06-27T23:59:42.667Z,95.90
